Список аэропортов
Фактическая погода:

24 мая, 15:20
Температура: +23°C (+23.0*)
Ветер: сев.-восточный 4 м/с
Давление: *762 мм
неб. 600 м
Время (МСК)Темп. СВетерВлажностьДавлениеОблачностьОсадки
15:00+24С, 3 м/с46%1017 гПас прояснениями
16:00+24СВ, 3 м/с45%1016 гПаоблачно
17:00+24СВ, 2 м/с44%1016 гПаоблачно
18:00+24СВ, 2 м/с45%1016 гПаоблачно
19:00+23СВ, 3 м/с48%1016 гПаоблачно
20:00+21СЗ, 4 м/с64%1016 гПас прояснениями
21:00+20СЗ, 2 м/с74%1016 гПас прояснениями
22:00+19СЗ, 1 м/с80%1017 гПамалооблачно
23:00+19Штиль 82%1017 гПаясно
25 мая
00:00+19ЮВ, 2 м/с82%1016 гПаясно
01:00+18Ю, 2 м/с79%1016 гПаясно
02:00+18Ю, 2 м/с77%1016 гПаясно
03:00+18Ю, 3 м/с75%1015 гПаясно
04:00+17Ю, 3 м/с73%1015 гПаясно
05:00+17Ю, 3 м/с70%1015 гПаясно
06:00+17Ю, 3 м/с67%1015 гПаясно
07:00+17Ю, 3 м/с64%1015 гПаясно
08:00+20Ю, 2 м/с54%1015 гПаясно
09:00+22З, 2 м/с44%1015 гПамалооблачно
10:00+24З, 4 м/с39%1015 гПаоблачно
11:00+24СЗ, 5 м/с37%1015 гПаоблачно
12:00+25СЗ, 5 м/с36%1015 гПаоблачно
13:00+25СЗ, 6 м/с36%1015 гПаоблачно
14:00+25СЗ, 6 м/с35%1015 гПамалооблачно
15:00+25СЗ, 5 м/с37%1015 гПамалооблачно
16:00+25СЗ, 4 м/с40%1015 гПаясно
17:00+24СЗ, 4 м/с43%1014 гПаясно
18:00+24С, 3 м/с43%1014 гПаясно
19:00+23С, 2 м/с45%1014 гПаясно
20:00+22С, 2 м/с48%1014 гПаясно
21:00+21СВ, 1 м/с55%1014 гПаясно
22:00+20ЮВ, 1 м/с56%1014 гПаясно
23:00+19ЮВ, 1 м/с56%1014 гПаясно
26 мая
00:00+19Ю, 1 м/с59%1014 гПаясно
01:00+18Ю, 2 м/с64%1014 гПаясно
02:00+18Ю, 2 м/с65%1014 гПаоблачно
03:00+18Ю, 2 м/с68%1014 гПас прояснениями
04:00+18ЮЗ, 2 м/с67%1013 гПас прояснениями
05:00+17ЮЗ, 2 м/с68%1013 гПаясно
06:00+17Ю, 3 м/с67%1013 гПаясно
07:00+17Ю, 3 м/с60%1013 гПамалооблачно
08:00+19Ю, 2 м/с50%1014 гПаясно
09:00+22Ю, 2 м/с41%1014 гПаясно
10:00+23ЮВ, 1 м/с36%1014 гПаясно
11:00+24С, 1 м/с33%1014 гПаясно
12:00+25СВ, 1 м/с32%1014 гПамалооблачно
13:00+25СВ, 1 м/с33%1014 гПамалооблачно
14:00+26СВ, 2 м/с35%1013 гПас прояснениями
15:00+25С, 4 м/с37%1013 гПаоблачно